createdAt,value
2022-12-05T00:00:28.660Z,3.77
2022-12-05T00:15:23.649Z,3.28
2022-12-05T00:30:23.818Z,3.22
2022-12-05T00:45:23.973Z,3.28
2022-12-05T01:00:29.772Z,3.22
2022-12-05T01:15:24.199Z,3.22
2022-12-05T01:30:24.775Z,3.20
2022-12-05T01:45:24.125Z,3.20
2022-12-05T02:00:24.331Z,3.25
2022-12-05T02:15:33.233Z,3.17
2022-12-05T02:30:33.113Z,3.38
2022-12-05T02:45:33.236Z,3.33
2022-12-05T03:00:35.266Z,4.00
2022-12-05T03:15:23.338Z,3.22
2022-12-05T03:30:24.605Z,3.35
2022-12-05T03:45:23.346Z,3.50
2022-12-05T04:00:23.276Z,3.00
2022-12-05T04:15:23.560Z,2.90
2022-12-05T04:30:23.904Z,2.65
2022-12-05T04:45:23.648Z,2.77
2022-12-05T05:00:23.719Z,2.42
2022-12-05T05:15:23.608Z,2.40
2022-12-05T05:30:23.749Z,2.45
2022-12-05T05:45:23.690Z,2.45
2022-12-05T06:00:28.101Z,2.47
2022-12-05T06:15:23.789Z,2.70
2022-12-05T06:30:23.763Z,3.00
2022-12-05T06:45:23.637Z,2.97
2022-12-05T07:00:30.903Z,2.85
2022-12-05T07:15:23.766Z,2.75
2022-12-05T07:30:23.551Z,2.70
2022-12-05T07:45:23.666Z,2.88
2022-12-05T08:00:24.523Z,3.00
2022-12-05T08:15:24.032Z,3.10
2022-12-05T08:30:25.341Z,3.53
2022-12-05T08:45:23.830Z,3.50
2022-12-05T09:00:27.204Z,3.72
2022-12-05T09:15:23.921Z,3.78
2022-12-05T09:30:24.121Z,3.88
2022-12-05T09:45:23.999Z,4.22
2022-12-05T10:00:28.474Z,4.38
2022-12-05T10:15:23.998Z,4.57
2022-12-05T10:30:23.945Z,4.50
2022-12-05T10:45:24.209Z,4.87
2022-12-05T11:00:25.770Z,4.83
2022-12-05T11:15:23.980Z,5.10
2022-12-05T11:30:23.998Z,5.50
2022-12-05T11:45:24.046Z,5.47
2022-12-05T12:00:24.089Z,5.80
2022-12-05T12:15:24.035Z,6.22
2022-12-05T12:30:24.319Z,6.37
2022-12-05T12:45:24.093Z,6.47
2022-12-05T13:00:34.374Z,6.47
2022-12-05T13:15:24.065Z,6.85
2022-12-05T13:30:23.423Z,6.62
2022-12-05T13:45:23.478Z,6.62
2022-12-05T14:00:30.717Z,6.55
2022-12-05T14:15:24.500Z,6.50
2022-12-05T14:30:23.385Z,6.38
2022-12-05T14:45:23.600Z,6.28
2022-12-05T15:00:23.614Z,6.37
2022-12-05T15:15:23.396Z,6.15
2022-12-05T15:30:27.519Z,6.07
2022-12-05T15:45:24.095Z,5.95
2022-12-05T16:00:23.838Z,5.85
2022-12-05T16:15:23.544Z,5.65
2022-12-05T16:30:23.938Z,5.57
2022-12-05T16:45:23.891Z,5.53
2022-12-05T17:00:24.931Z,5.53
2022-12-05T17:15:23.731Z,5.25
2022-12-05T17:30:24.098Z,5.50
2022-12-05T17:45:23.646Z,5.25
2022-12-05T18:00:41.111Z,5.33
2022-12-05T18:15:23.869Z,5.20
2022-12-05T18:30:23.851Z,5.33
2022-12-05T18:45:24.237Z,5.03
2022-12-05T19:00:29.064Z,4.88
2022-12-05T19:15:23.883Z,4.78
2022-12-05T19:30:24.646Z,4.93
2022-12-05T19:45:23.986Z,4.78
2022-12-05T20:00:29.737Z,4.85
2022-12-05T20:15:23.905Z,4.85
2022-12-05T20:30:24.155Z,4.93
2022-12-05T20:45:24.092Z,4.82
2022-12-05T21:00:31.028Z,4.75
2022-12-05T21:15:24.043Z,4.82
2022-12-05T21:30:24.222Z,4.82
2022-12-05T21:45:24.096Z,4.70
2022-12-05T22:00:33.676Z,4.82
2022-12-05T22:15:23.033Z,5.15
2022-12-05T22:30:23.841Z,4.68
2022-12-05T22:45:23.270Z,4.60
2022-12-05T23:03:08.118Z,4.00
2022-12-05T23:15:23.379Z,4.30
2022-12-05T23:30:23.311Z,4.25
2022-12-05T23:45:23.340Z,4.20
